Time;durP1;ratioP1;P1;durP2;ratioP2;P2;SDS_P1;SDS_P2;PMS_P1;PMS_P2;Temp;Humidity;BMP_temperature;BMP_pressure;BME280_temperature;BME280_humidity;BME280_pressure;Samples;Min_cycle;Max_cycle;Signal;HPM_P1;HPM_P2
2023/04/01 00:01:10;;;;;;;;;;;9.80;99.90;;;;;;5081228;28;19935;-76
2023/04/01 00:03:36;;;;;;;;;;;9.80;99.90;;;;;;5110555;27;19946;-77
2023/04/01 00:06:01;;;;;;;;;;;9.80;99.90;;;;;;5123577;27;19927;-77
2023/04/01 00:08:27;;;;;;;;;;;9.70;99.90;;;;;;5081139;27;19987;-77
2023/04/01 00:10:53;;;;;;;;;;;9.70;99.90;;;;;;5093170;28;19971;-77
2023/04/01 00:13:20;;;;;;;;;;;9.70;99.90;;;;;;5084073;28;19955;-77
2023/04/01 00:15:46;;;;;;;;;;;9.70;99.90;;;;;;5079964;28;19955;-77
2023/04/01 00:18:12;;;;;;;;;;;9.80;99.90;;;;;;5114085;28;20301;-77
2023/04/01 00:20:37;;;;;;;;;;;9.70;99.90;;;;;;5085780;28;19945;-77
2023/04/01 00:23:04;;;;;;;;;;;9.70;99.90;;;;;;5087726;28;19923;-78
2023/04/01 00:25:30;;;;;;;;;;;9.70;99.90;;;;;;5070660;28;19923;-77
2023/04/01 00:27:56;;;;;;;;;;;9.80;99.90;;;;;;5074643;27;19931;-78
2023/04/01 00:30:21;;;;;;;;;;;9.70;99.90;;;;;;5067304;28;19963;-77
2023/04/01 00:32:51;;;;;;;;;;;9.70;99.90;;;;;;5079393;28;19951;-78
2023/04/01 00:35:16;;;;;;;;;;;9.70;99.90;;;;;;5104011;28;19923;-78
2023/04/01 00:37:42;;;;;;;;;;;9.70;99.90;;;;;;5080821;27;19993;-79
2023/04/01 00:40:20;;;;;;;;;;;9.70;99.90;;;;;;5088938;28;19931;-77
2023/04/01 00:42:46;;;;;;;;;;;9.70;99.90;;;;;;5081242;28;19927;-78
2023/04/01 00:45:27;;;;;;;;;;;9.70;99.90;;;;;;5127754;27;19942;-78
2023/04/01 00:47:53;;;;;;;;;;;9.70;99.90;;;;;;5126885;27;19969;-78
2023/04/01 00:50:19;;;;;;;;;;;9.70;99.90;;;;;;5069004;28;20299;-78
2023/04/01 00:52:46;;;;;;;;;;;9.70;99.90;;;;;;5106295;28;19931;-77
2023/04/01 00:55:12;;;;;;;;;;;9.70;99.90;;;;;;5086057;28;19927;-77
2023/04/01 00:57:39;;;;;;;;;;;9.70;99.90;;;;;;5129770;27;19927;-77
2023/04/01 01:00:09;;;;;;;;;;;9.70;99.90;;;;;;5090395;28;19924;-77
2023/04/01 01:02:35;;;;;;;;;;;9.70;99.90;;;;;;5103521;28;19930;-77
2023/04/01 01:05:00;;;;;;;;;;;9.70;99.90;;;;;;5087067;28;20287;-77
2023/04/01 01:07:40;;;;;;;;;;;9.70;99.90;;;;;;5086362;28;19928;-76
2023/04/01 01:10:20;;;;;;;;;;;9.70;99.90;;;;;;5115884;28;19925;-77
2023/04/01 01:12:54;;;;;;;;;;;9.70;99.90;;;;;;5098782;28;19963;-77
2023/04/01 01:15:23;;;;;;;;;;;9.70;99.90;;;;;;5103247;28;19923;-77
2023/04/01 01:17:51;;;;;;;;;;;9.70;99.90;;;;;;5086471;28;19924;-77
2023/04/01 01:20:27;;;;;;;;;;;9.70;99.90;;;;;;5087738;28;19934;-78
2023/04/01 01:23:08;;;;;;;;;;;9.70;99.90;;;;;;5103444;28;19924;-78
2023/04/01 01:25:42;;;;;;;;;;;9.70;99.90;;;;;;5086429;28;19994;-78
2023/04/01 01:28:13;;;;;;;;;;;9.70;99.90;;;;;;5101316;28;20425;-78
2023/04/01 01:30:57;;;;;;;;;;;9.70;99.90;;;;;;5112291;28;19950;-78
2023/04/01 01:33:30;;;;;;;;;;;9.70;99.90;;;;;;5086472;28;19955;-78
2023/04/01 01:35:57;;;;;;;;;;;9.70;99.90;;;;;;5103197;28;19945;-78
2023/04/01 01:38:26;;;;;;;;;;;9.70;99.90;;;;;;5102974;28;19962;-78
2023/04/01 01:40:53;;;;;;;;;;;9.70;99.90;;;;;;5083917;28;19931;-79
2023/04/01 01:43:26;;;;;;;;;;;9.70;99.90;;;;;;5097315;28;19930;-79
2023/04/01 01:45:57;;;;;;;;;;;9.70;99.90;;;;;;5133913;27;19984;-79
2023/04/01 01:48:24;;;;;;;;;;;9.70;99.90;;;;;;5079858;27;19979;-80
2023/04/01 01:50:50;;;;;;;;;;;9.70;99.90;;;;;;5101079;27;19983;-80
2023/04/01 01:53:15;;;;;;;;;;;9.70;99.90;;;;;;5085071;28;19928;-79
2023/04/01 01:55:42;;;;;;;;;;;9.70;99.90;;;;;;5100504;28;19924;-80
2023/04/01 01:58:11;;;;;;;;;;;9.70;99.90;;;;;;5115684;28;19924;-80
2023/04/01 02:00:37;;;;;;;;;;;9.70;99.90;;;;;;5104733;28;19932;-79
2023/04/01 02:03:03;;;;;;;;;;;9.70;99.90;;;;;;5135121;27;19927;-80
2023/04/01 02:05:30;;;;;;;;;;;9.70;99.90;;;;;;5098350;27;19932;-80
2023/04/01 02:08:02;;;;;;;;;;;9.70;99.90;;;;;;5079843;28;19924;-80
2023/04/01 02:10:29;;;;;;;;;;;9.70;99.90;;;;;;5109069;28;20380;-79
2023/04/01 02:12:57;;;;;;;;;;;9.70;99.90;;;;;;5070626;28;19991;-80
2023/04/01 02:15:24;;;;;;;;;;;9.70;99.90;;;;;;5082086;28;19932;-79
2023/04/01 02:17:51;;;;;;;;;;;9.70;99.90;;;;;;5097862;28;19928;-79
2023/04/01 02:20:19;;;;;;;;;;;9.70;99.90;;;;;;5090477;28;20015;-80
2023/04/01 02:22:47;;;;;;;;;;;9.70;99.90;;;;;;5103097;28;19924;-80
2023/04/01 02:25:15;;;;;;;;;;;9.70;99.90;;;;;;5098579;28;19946;-80
2023/04/01 02:27:43;;;;;;;;;;;9.70;99.90;;;;;;5098926;28;20371;-80
2023/04/01 02:30:09;;;;;;;;;;;9.70;99.90;;;;;;5081466;28;19924;-79
2023/04/01 02:32:37;;;;;;;;;;;9.70;99.90;;;;;;5084709;28;19924;-80
2023/04/01 02:35:05;;;;;;;;;;;9.70;99.90;;;;;;5132052;27;20350;-79
2023/04/01 02:37:31;;;;;;;;;;;9.70;99.90;;;;;;5080523;28;19946;-80
2023/04/01 02:40:01;;;;;;;;;;;9.70;99.90;;;;;;5098784;28;19927;-80
2023/04/01 02:42:26;;;;;;;;;;;9.70;99.90;;;;;;5112351;28;19993;-79
2023/04/01 02:44:52;;;;;;;;;;;9.70;99.90;;;;;;5098825;28;19928;-80
2023/04/01 02:47:17;;;;;;;;;;;9.70;99.90;;;;;;5066815;28;19924;-80
2023/04/01 02:49:43;;;;;;;;;;;9.70;99.90;;;;;;5090318;28;19974;-80
2023/04/01 02:52:08;;;;;;;;;;;9.70;99.90;;;;;;5087570;28;20439;-80
2023/04/01 02:54:34;;;;;;;;;;;9.70;99.90;;;;;;5076665;28;19935;-79
2023/04/01 02:57:00;;;;;;;;;;;9.70;99.90;;;;;;5101931;28;19924;-80
2023/04/01 02:59:25;;;;;;;;;;;9.70;99.90;;;;;;5059602;28;19928;-80
2023/04/01 03:01:51;;;;;;;;;;;9.70;99.90;;;;;;5076822;28;19987;-80
2023/04/01 03:04:16;;;;;;;;;;;9.70;99.90;;;;;;5084801;28;19932;-79
2023/04/01 03:06:42;;;;;;;;;;;9.70;99.90;;;;;;5064052;28;19955;-79
2023/04/01 03:09:08;;;;;;;;;;;9.70;99.90;;;;;;5092908;28;19928;-79
2023/04/01 03:11:33;;;;;;;;;;;9.70;99.90;;;;;;5095703;28;19924;-79
2023/04/01 03:13:59;;;;;;;;;;;9.70;99.90;;;;;;5083900;28;19929;-79
2023/04/01 03:16:24;;;;;;;;;;;9.70;99.90;;;;;;5120553;27;19950;-79
2023/04/01 03:18:52;;;;;;;;;;;9.70;99.90;;;;;;5082669;28;19932;-79
2023/04/01 03:21:19;;;;;;;;;;;9.70;99.90;;;;;;5084597;28;19991;-80
2023/04/01 03:23:44;;;;;;;;;;;9.70;99.90;;;;;;5066808;28;19946;-80
2023/04/01 03:26:10;;;;;;;;;;;9.70;99.90;;;;;;5065635;28;19928;-80
2023/04/01 03:28:36;;;;;;;;;;;9.70;99.90;;;;;;5072344;28;19924;-80
2023/04/01 03:31:01;;;;;;;;;;;9.70;99.90;;;;;;5074889;28;19924;-80
2023/04/01 03:36:49;;;;;;;;;;;9.70;99.90;;;;;;5084661;28;19919;-81
2023/04/01 03:39:18;;;;;;;;;;;9.70;99.90;;;;;;5088299;28;19948;-80
2023/04/01 03:41:44;;;;;;;;;;;9.70;99.90;;;;;;5072927;28;20008;-80
2023/04/01 03:44:10;;;;;;;;;;;9.70;99.90;;;;;;5066470;28;19950;-80
2023/04/01 03:46:35;;;;;;;;;;;9.70;99.90;;;;;;5065748;28;19955;-80
2023/04/01 03:49:01;;;;;;;;;;;9.70;99.90;;;;;;5079269;28;19924;-79
2023/04/01 03:51:26;;;;;;;;;;;9.80;99.90;;;;;;5088791;28;20042;-79
2023/04/01 03:53:52;;;;;;;;;;;9.70;99.90;;;;;;5080075;28;19986;-79
2023/04/01 03:56:18;;;;;;;;;;;9.70;99.90;;;;;;5082084;28;19929;-78
2023/04/01 03:58:43;;;;;;;;;;;9.80;99.90;;;;;;5073243;28;20410;-78
2023/04/01 04:01:16;;;;;;;;;;;9.80;99.90;;;;;;5074661;28;19947;-79
2023/04/01 04:03:43;;;;;;;;;;;9.70;99.90;;;;;;5066467;28;19924;-79
2023/04/01 04:06:13;;;;;;;;;;;9.70;99.90;;;;;;5095992;28;20325;-79
2023/04/01 04:08:39;;;;;;;;;;;9.80;99.90;;;;;;5078907;28;19930;-80
2023/04/01 04:11:04;;;;;;;;;;;9.70;99.90;;;;;;5092432;28;19967;-79
2023/04/01 04:13:30;;;;;;;;;;;9.80;99.90;;;;;;5095031;28;19924;-79
2023/04/01 04:15:56;;;;;;;;;;;9.80;99.90;;;;;;5078335;28;19928;-79
2023/04/01 04:18:21;;;;;;;;;;;9.80;99.90;;;;;;5075308;28;20023;-79
2023/04/01 04:20:50;;;;;;;;;;;9.80;99.90;;;;;;5091055;28;20004;-79
2023/04/01 04:23:17;;;;;;;;;;;9.80;99.90;;;;;;5085381;28;19924;-79
2023/04/01 04:25:55;;;;;;;;;;;9.80;99.90;;;;;;5074032;28;19970;-79
2023/04/01 04:28:20;;;;;;;;;;;9.80;99.90;;;;;;5107010;28;19924;-78
2023/04/01 04:30:46;;;;;;;;;;;9.80;99.90;;;;;;5079987;28;19969;-78
2023/04/01 04:33:11;;;;;;;;;;;9.80;99.90;;;;;;5081620;28;19928;-78
2023/04/01 04:35:37;;;;;;;;;;;9.80;99.90;;;;;;5081830;28;19939;-78
2023/04/01 04:38:02;;;;;;;;;;;9.80;99.90;;;;;;5083986;28;19934;-78
2023/04/01 04:40:28;;;;;;;;;;;9.80;99.90;;;;;;5084122;28;20504;-78
2023/04/01 04:42:54;;;;;;;;;;;9.80;99.90;;;;;;5083515;28;19928;-79
2023/04/01 04:45:19;;;;;;;;;;;9.80;99.90;;;;;;5082775;28;19971;-78
2023/04/01 04:47:45;;;;;;;;;;;9.80;99.90;;;;;;5083795;28;19966;-78
2023/04/01 04:50:11;;;;;;;;;;;9.80;99.90;;;;;;5099284;28;19924;-78
2023/04/01 04:52:37;;;;;;;;;;;9.80;99.90;;;;;;5100361;28;20629;-77
2023/04/01 04:55:02;;;;;;;;;;;9.80;99.90;;;;;;5100251;28;19928;-77
2023/04/01 04:57:28;;;;;;;;;;;9.80;99.90;;;;;;5086393;28;19931;-78
2023/04/01 04:59:53;;;;;;;;;;;9.80;99.90;;;;;;5083152;28;19987;-78
2023/04/01 05:02:19;;;;;;;;;;;9.80;99.90;;;;;;5083250;28;19935;-78
2023/04/01 05:04:45;;;;;;;;;;;9.80;99.90;;;;;;5083035;28;20471;-78
2023/04/01 05:07:10;;;;;;;;;;;9.70;99.90;;;;;;5082711;28;20418;-78
2023/04/01 05:09:36;;;;;;;;;;;9.80;99.90;;;;;;5062843;28;19931;-78
2023/04/01 05:12:02;;;;;;;;;;;9.80;99.90;;;;;;5093739;28;19984;-78
2023/04/01 05:14:27;;;;;;;;;;;9.70;99.90;;;;;;5100364;28;19932;-78
2023/04/01 05:16:54;;;;;;;;;;;9.70;99.90;;;;;;5099342;28;19928;-79
2023/04/01 05:19:20;;;;;;;;;;;9.70;99.90;;;;;;5082196;28;19991;-79
2023/04/01 05:21:45;;;;;;;;;;;9.70;99.90;;;;;;5098827;28;19931;-78
2023/04/01 05:24:11;;;;;;;;;;;9.70;99.90;;;;;;5078244;28;19928;-79
2023/04/01 05:26:37;;;;;;;;;;;9.70;99.90;;;;;;5081249;28;19963;-78
2023/04/01 05:29:03;;;;;;;;;;;9.70;99.90;;;;;;5080965;28;19964;-78
2023/04/01 05:31:29;;;;;;;;;;;9.70;99.90;;;;;;5099255;28;20361;-78
2023/04/01 05:33:55;;;;;;;;;;;9.70;99.90;;;;;;5097618;28;19928;-79
2023/04/01 05:36:20;;;;;;;;;;;9.70;99.90;;;;;;5098176;28;19928;-79
2023/04/01 05:38:47;;;;;;;;;;;9.70;99.90;;;;;;5097839;28;19999;-78
2023/04/01 05:41:13;;;;;;;;;;;9.70;99.90;;;;;;5080911;28;19963;-79
2023/04/01 05:43:39;;;;;;;;;;;9.70;99.90;;;;;;5097265;28;19932;-80
2023/04/01 05:46:05;;;;;;;;;;;9.70;99.90;;;;;;5080616;28;19928;-80
2023/04/01 05:48:30;;;;;;;;;;;9.70;99.90;;;;;;5091622;28;19998;-80
2023/04/01 05:50:56;;;;;;;;;;;9.80;99.90;;;;;;5059193;28;19947;-80
2023/04/01 05:53:22;;;;;;;;;;;9.80;99.90;;;;;;5076446;28;19978;-81
2023/04/01 05:55:47;;;;;;;;;;;9.80;99.90;;;;;;5095147;28;19927;-80
2023/04/01 05:58:13;;;;;;;;;;;9.80;99.90;;;;;;5096510;28;19942;-81
2023/04/01 06:00:39;;;;;;;;;;;9.80;99.90;;;;;;5079014;28;19931;-81
2023/04/01 06:03:04;;;;;;;;;;;9.80;99.90;;;;;;5096936;28;20404;-81
2023/04/01 06:05:35;;;;;;;;;;;9.80;99.90;;;;;;5064243;28;19934;-81
2023/04/01 06:08:05;;;;;;;;;;;9.80;99.90;;;;;;5081075;28;19935;-82
2023/04/01 06:10:51;;;;;;;;;;;9.80;99.90;;;;;;5092230;28;19924;-81
2023/04/01 06:13:32;;;;;;;;;;;9.90;99.90;;;;;;5067439;28;19928;-81
2023/04/01 06:15:58;;;;;;;;;;;9.90;99.90;;;;;;5080947;28;19983;-81
2023/04/01 06:18:34;;;;;;;;;;;9.90;99.90;;;;;;5081360;28;20386;-81
2023/04/01 06:21:12;;;;;;;;;;;9.90;99.90;;;;;;5080875;28;19936;-82
2023/04/01 06:23:37;;;;;;;;;;;9.90;99.90;;;;;;5080601;28;19935;-81
2023/04/01 06:26:10;;;;;;;;;;;9.90;99.90;;;;;;5097706;28;19924;-81
2023/04/01 06:28:51;;;;;;;;;;;10.00;99.90;;;;;;5080628;28;19994;-81
2023/04/01 06:31:36;;;;;;;;;;;9.90;99.90;;;;;;5097718;28;19924;-81
2023/04/01 06:34:21;;;;;;;;;;;9.90;99.90;;;;;;5079857;28;20046;-81
2023/04/01 06:37:02;;;;;;;;;;;10.00;99.90;;;;;;5097736;28;19935;-81
2023/04/01 06:39:40;;;;;;;;;;;10.00;99.90;;;;;;5114598;28;19932;-81
2023/04/01 06:42:26;;;;;;;;;;;10.00;99.90;;;;;;5076752;28;19931;-80
2023/04/01 06:44:53;;;;;;;;;;;10.00;99.90;;;;;;5094890;28;20418;-81
2023/04/01 06:47:19;;;;;;;;;;;10.00;99.90;;;;;;5073216;28;19928;-82
2023/04/01 06:50:03;;;;;;;;;;;10.00;99.90;;;;;;5071135;28;20019;-81
2023/04/01 06:52:37;;;;;;;;;;;10.00;99.90;;;;;;5069319;28;19928;-81
2023/04/01 06:55:22;;;;;;;;;;;10.00;99.90;;;;;;5090822;28;19928;-81
2023/04/01 06:57:49;;;;;;;;;;;10.00;99.90;;;;;;5097234;28;19935;-80
2023/04/01 07:00:18;;;;;;;;;;;10.00;99.90;;;;;;5077650;28;19932;-80
2023/04/01 07:02:48;;;;;;;;;;;10.10;99.90;;;;;;5091622;28;20010;-80
2023/04/01 07:05:14;;;;;;;;;;;10.20;99.90;;;;;;5094619;28;20023;-80
2023/04/01 07:07:41;;;;;;;;;;;10.20;99.90;;;;;;5076247;28;19925;-80
2023/04/01 07:10:16;;;;;;;;;;;10.20;99.90;;;;;;5072756;28;19927;-80
2023/04/01 07:12:47;;;;;;;;;;;10.20;99.90;;;;;;5078075;28;20345;-80
2023/04/01 07:15:19;;;;;;;;;;;10.20;99.90;;;;;;5078253;28;19928;-80
2023/04/01 07:17:46;;;;;;;;;;;10.30;99.90;;;;;;5096901;28;19931;-80
2023/04/01 07:20:31;;;;;;;;;;;10.30;99.90;;;;;;5078328;28;19962;-81
2023/04/01 07:23:01;;;;;;;;;;;10.30;99.90;;;;;;5094668;28;19928;-80
2023/04/01 07:25:47;;;;;;;;;;;10.30;99.90;;;;;;5095239;28;19932;-80
2023/04/01 07:28:16;;;;;;;;;;;10.40;99.90;;;;;;5066706;28;19969;-81
2023/04/01 07:30:44;;;;;;;;;;;10.40;99.90;;;;;;5080021;28;19924;-81
2023/04/01 07:33:16;;;;;;;;;;;10.50;99.90;;;;;;5089970;28;20224;-81
2023/04/01 07:35:54;;;;;;;;;;;10.50;99.90;;;;;;5078745;28;19984;-81
2023/04/01 07:38:22;;;;;;;;;;;10.50;99.90;;;;;;5066224;28;19924;-80
2023/04/01 07:41:01;;;;;;;;;;;10.60;99.90;;;;;;5078752;28;19928;-80
2023/04/01 07:43:38;;;;;;;;;;;10.60;99.90;;;;;;5090164;28;19931;-79
2023/04/01 07:46:26;;;;;;;;;;;10.60;99.90;;;;;;5095356;28;19935;-80
2023/04/01 07:48:51;;;;;;;;;;;10.70;99.90;;;;;;5065311;28;19935;-79
2023/04/01 07:51:17;;;;;;;;;;;10.70;99.90;;;;;;5078376;28;19928;-79
2023/04/01 07:54:12;;;;;;;;;;;10.70;99.90;;;;;;5077303;28;19928;-80
2023/04/01 07:56:44;;;;;;;;;;;10.70;99.90;;;;;;5057369;28;19928;-79
2023/04/01 07:59:09;;;;;;;;;;;10.70;99.90;;;;;;5078143;28;20007;-79
2023/04/01 08:01:38;;;;;;;;;;;10.80;99.90;;;;;;5077807;28;20354;-79
2023/04/01 08:04:22;;;;;;;;;;;10.80;99.90;;;;;;5095525;28;19928;-80
2023/04/01 08:07:09;;;;;;;;;;;10.80;99.90;;;;;;5079413;28;19924;-79
2023/04/01 08:09:45;;;;;;;;;;;10.80;99.90;;;;;;5071437;28;19924;-79
2023/04/01 08:12:21;;;;;;;;;;;10.80;99.90;;;;;;5082401;28;19924;-79
2023/04/01 08:14:57;;;;;;;;;;;10.70;99.90;;;;;;5083402;28;19928;-79
2023/04/01 08:17:49;;;;;;;;;;;10.70;99.90;;;;;;5082364;28;20019;-79
2023/04/01 08:20:23;;;;;;;;;;;10.70;99.90;;;;;;5049029;28;19928;-79
2023/04/01 08:22:57;;;;;;;;;;;10.80;99.90;;;;;;5077463;28;19925;-80
2023/04/01 08:25:25;;;;;;;;;;;10.80;99.90;;;;;;5079242;28;19924;-80
2023/04/01 08:28:09;;;;;;;;;;;10.90;99.90;;;;;;5096980;28;19924;-79
2023/04/01 08:30:35;;;;;;;;;;;10.80;99.90;;;;;;5097873;28;19963;-79
2023/04/01 08:33:06;;;;;;;;;;;10.80;99.90;;;;;;5079928;28;19928;-79
2023/04/01 08:35:39;;;;;;;;;;;10.80;99.90;;;;;;5095884;28;19928;-80
2023/04/01 08:38:09;;;;;;;;;;;10.80;99.90;;;;;;5077817;28;19928;-79
2023/04/01 08:40:37;;;;;;;;;;;10.80;99.90;;;;;;5079929;28;19931;-78
2023/04/01 08:43:22;;;;;;;;;;;10.80;99.90;;;;;;5073933;28;19956;-78
2023/04/01 08:45:48;;;;;;;;;;;10.80;99.90;;;;;;5096833;28;19942;-78
2023/04/01 08:48:19;;;;;;;;;;;10.80;99.90;;;;;;5091250;28;19935;-78
2023/04/01 08:51:03;;;;;;;;;;;10.80;99.90;;;;;;5079296;28;19956;-77
2023/04/01 08:53:35;;;;;;;;;;;10.80;99.90;;;;;;5081476;28;19995;-78
2023/04/01 08:56:17;;;;;;;;;;;10.80;99.90;;;;;;5076442;28;19954;-78
2023/04/01 08:59:01;;;;;;;;;;;10.80;99.90;;;;;;5097043;28;19946;-78
2023/04/01 09:01:55;;;;;;;;;;;10.90;99.90;;;;;;5071081;28;20403;-78
2023/04/01 09:04:40;;;;;;;;;;;10.80;99.90;;;;;;5054551;28;19931;-78
2023/04/01 09:07:30;;;;;;;;;;;10.90;99.90;;;;;;5094212;28;19925;-78
2023/04/01 09:09:55;;;;;;;;;;;10.90;99.90;;;;;;5092917;28;21246;-78
2023/04/01 09:12:24;;;;;;;;;;;10.90;99.90;;;;;;5094810;28;19973;-79
2023/04/01 09:15:01;;;;;;;;;;;10.90;99.90;;;;;;5094492;28;19924;-79
2023/04/01 09:17:47;;;;;;;;;;;10.90;99.90;;;;;;5079100;28;19967;-79
2023/04/01 09:20:16;;;;;;;;;;;11.00;99.90;;;;;;5058539;28;19997;-79
2023/04/01 09:23:00;;;;;;;;;;;11.10;99.90;;;;;;5077595;28;19924;-79
2023/04/01 09:25:33;;;;;;;;;;;11.10;99.90;;;;;;5084945;28;19924;-79
2023/04/01 09:28:01;;;;;;;;;;;11.20;99.90;;;;;;5079503;28;19943;-80
2023/04/01 09:30:33;;;;;;;;;;;11.30;99.90;;;;;;5094421;28;19943;-79
2023/04/01 09:33:08;;;;;;;;;;;11.40;99.90;;;;;;5077833;28;19928;-79
2023/04/01 09:35:42;;;;;;;;;;;11.40;99.90;;;;;;5094320;28;19928;-79
2023/04/01 09:38:08;;;;;;;;;;;11.40;99.90;;;;;;5079437;28;19932;-78
2023/04/01 09:40:40;;;;;;;;;;;11.50;99.90;;;;;;5080054;28;19975;-79
2023/04/01 09:43:16;;;;;;;;;;;11.60;99.90;;;;;;5078224;28;19951;-79
2023/04/01 09:45:51;;;;;;;;;;;11.70;99.90;;;;;;5085231;28;19925;-78
2023/04/01 09:48:35;;;;;;;;;;;11.70;99.90;;;;;;5077896;28;19932;-79
2023/04/01 09:51:13;;;;;;;;;;;11.60;99.90;;;;;;5078800;28;19929;-78
2023/04/01 09:54:02;;;;;;;;;;;11.60;99.90;;;;;;5075016;28;19925;-79
2023/04/01 09:56:46;;;;;;;;;;;11.60;99.90;;;;;;5072995;28;20302;-79
2023/04/01 09:59:29;;;;;;;;;;;11.60;99.90;;;;;;5079377;28;19935;-79
2023/04/01 10:01:54;;;;;;;;;;;11.60;99.90;;;;;;5074971;28;19970;-79
2023/04/01 10:04:39;;;;;;;;;;;11.60;99.90;;;;;;5077211;28;20019;-79
2023/04/01 10:07:04;;;;;;;;;;;11.60;99.90;;;;;;5065802;28;19924;-79
2023/04/01 10:09:31;;;;;;;;;;;11.60;99.90;;;;;;5078339;28;19928;-79
2023/04/01 10:12:16;;;;;;;;;;;11.70;99.90;;;;;;5077466;28;19928;-80
2023/04/01 10:14:41;;;;;;;;;;;11.70;99.90;;;;;;5069173;28;19924;-79
2023/04/01 10:17:19;;;;;;;;;;;11.70;99.90;;;;;;5096389;28;19982;-80
2023/04/01 10:19:45;;;;;;;;;;;11.70;99.90;;;;;;5081988;28;20120;-79
2023/04/01 10:22:14;;;;;;;;;;;11.70;99.90;;;;;;5078347;28;19928;-79
2023/04/01 10:24:42;;;;;;;;;;;11.80;99.90;;;;;;5079092;28;20215;-80
2023/04/01 10:27:20;;;;;;;;;;;11.80;99.90;;;;;;5078023;28;20002;-80
2023/04/01 10:29:55;;;;;;;;;;;11.80;99.90;;;;;;5094017;28;19965;-79
2023/04/01 10:32:30;;;;;;;;;;;11.90;99.90;;;;;;5077950;28;19977;-79
2023/04/01 10:35:18;;;;;;;;;;;11.90;99.90;;;;;;5066709;28;19928;-79
2023/04/01 10:37:55;;;;;;;;;;;12.00;99.90;;;;;;5075589;28;19924;-78
2023/04/01 10:40:39;;;;;;;;;;;12.10;99.90;;;;;;5097267;28;19943;-78
2023/04/01 10:43:20;;;;;;;;;;;12.10;99.90;;;;;;5076889;28;19924;-78
2023/04/01 10:45:57;;;;;;;;;;;12.00;99.90;;;;;;5068413;28;19935;-78
2023/04/01 10:48:24;;;;;;;;;;;12.00;99.90;;;;;;5071950;28;19955;-78
2023/04/01 10:51:09;;;;;;;;;;;11.90;99.90;;;;;;5079900;28;19977;-78
2023/04/01 10:53:34;;;;;;;;;;;11.90;99.90;;;;;;5079179;28;19975;-78
2023/04/01 10:56:00;;;;;;;;;;;11.90;99.90;;;;;;5078674;28;19924;-78
2023/04/01 10:58:44;;;;;;;;;;;11.90;99.90;;;;;;5080992;28;19939;-77
2023/04/01 11:01:16;;;;;;;;;;;11.90;99.90;;;;;;5092607;28;19947;-78
2023/04/01 11:04:01;;;;;;;;;;;11.90;99.90;;;;;;5079159;28;19934;-77
2023/04/01 11:06:26;;;;;;;;;;;11.90;99.90;;;;;;5076452;28;19980;-78
2023/04/01 11:09:04;;;;;;;;;;;11.90;99.90;;;;;;5079962;28;20210;-77
2023/04/01 11:11:48;;;;;;;;;;;11.90;99.90;;;;;;5079259;28;19924;-77
2023/04/01 11:14:14;;;;;;;;;;;11.90;99.90;;;;;;5080512;28;19936;-78
2023/04/01 11:16:43;;;;;;;;;;;11.90;99.90;;;;;;5078903;28;19991;-78
2023/04/01 11:19:08;;;;;;;;;;;11.90;99.90;;;;;;5079506;28;20291;-77
2023/04/01 11:21:49;;;;;;;;;;;11.90;99.90;;;;;;5074286;28;19964;-77
2023/04/01 11:24:33;;;;;;;;;;;11.90;99.90;;;;;;5096775;28;19950;-77
2023/04/01 11:27:21;;;;;;;;;;;12.00;99.90;;;;;;5077640;28;19928;-77
2023/04/01 11:29:52;;;;;;;;;;;12.00;99.90;;;;;;5088579;28;19924;-77
2023/04/01 11:32:24;;;;;;;;;;;12.10;99.90;;;;;;5078357;28;19932;-77
2023/04/01 11:35:01;;;;;;;;;;;12.20;99.90;;;;;;5072950;28;19928;-77
2023/04/01 11:37:36;;;;;;;;;;;12.20;99.90;;;;;;5078178;28;19935;-78
2023/04/01 11:40:10;;;;;;;;;;;12.10;99.90;;;;;;5078396;28;20104;-78
2023/04/01 11:42:49;;;;;;;;;;;12.00;99.90;;;;;;5079176;28;19928;-77
2023/04/01 11:45:33;;;;;;;;;;;11.80;99.90;;;;;;5074910;28;19928;-78
2023/04/01 11:48:32;;;;;;;;;;;11.60;99.90;;;;;;5074915;28;20011;-78
2023/04/01 11:51:01;;;;;;;;;;;11.50;99.90;;;;;;5041188;28;19927;-78
2023/04/01 11:53:31;;;;;;;;;;;11.30;99.90;;;;;;5096405;28;19931;-77
2023/04/01 11:56:02;;;;;;;;;;;11.30;99.90;;;;;;5077010;28;19980;-77
2023/04/01 11:58:27;;;;;;;;;;;11.20;99.90;;;;;;5094561;28;19928;-77
2023/04/01 12:01:03;;;;;;;;;;;11.10;99.90;;;;;;5079525;28;19925;-77
2023/04/01 12:03:52;;;;;;;;;;;11.10;99.90;;;;;;5077917;28;20407;-77
2023/04/01 12:06:38;;;;;;;;;;;11.10;99.90;;;;;;5095650;28;19928;-78
2023/04/01 12:09:06;;;;;;;;;;;11.00;99.90;;;;;;5077172;28;19924;-78
2023/04/01 12:11:39;;;;;;;;;;;10.90;99.90;;;;;;5079031;28;19946;-78
2023/04/01 12:14:17;;;;;;;;;;;10.90;99.90;;;;;;5076837;28;19924;-78
2023/04/01 12:17:01;;;;;;;;;;;10.90;99.90;;;;;;5076701;28;19924;-78
2023/04/01 12:19:45;;;;;;;;;;;10.90;99.90;;;;;;5076277;28;20306;-78
2023/04/01 12:22:10;;;;;;;;;;;10.90;99.90;;;;;;5073145;28;19955;-78
2023/04/01 12:24:44;;;;;;;;;;;10.90;99.90;;;;;;5079623;28;19935;-78
2023/04/01 12:27:22;;;;;;;;;;;10.90;99.90;;;;;;5096701;28;20053;-79
2023/04/01 12:30:17;;;;;;;;;;;10.90;99.90;;;;;;5079395;28;20360;-79
2023/04/01 12:33:03;;;;;;;;;;;11.00;99.90;;;;;;5068556;28;19924;-79
2023/04/01 12:35:35;;;;;;;;;;;10.90;99.90;;;;;;5079045;28;19928;-80
2023/04/01 12:38:06;;;;;;;;;;;10.80;99.90;;;;;;5079585;28;19947;-80
2023/04/01 12:40:50;;;;;;;;;;;10.80;99.90;;;;;;5079139;28;19935;-79
2023/04/01 12:43:35;;;;;;;;;;;10.70;99.90;;;;;;5078684;28;19928;-79
2023/04/01 12:46:20;;;;;;;;;;;10.60;99.90;;;;;;5065933;28;20042;-78
2023/04/01 12:48:45;;;;;;;;;;;10.60;99.90;;;;;;5065367;28;20010;-79
2023/04/01 12:51:17;;;;;;;;;;;10.40;99.90;;;;;;5079082;28;20016;-79
2023/04/01 12:53:55;;;;;;;;;;;10.40;99.90;;;;;;5079564;28;19928;-78
2023/04/01 12:56:39;;;;;;;;;;;10.50;99.90;;;;;;5083102;28;19967;-79
2023/04/01 12:59:08;;;;;;;;;;;10.40;99.90;;;;;;5082689;28;19930;-78
2023/04/01 13:01:52;;;;;;;;;;;10.50;99.90;;;;;;5082943;28;19924;-78
2023/04/01 13:04:36;;;;;;;;;;;10.50;99.90;;;;;;5099069;28;20039;-79
2023/04/01 13:07:17;;;;;;;;;;;10.40;99.90;;;;;;5082462;28;19924;-79
2023/04/01 13:09:55;;;;;;;;;;;10.40;99.90;;;;;;5083019;28;19930;-79
2023/04/01 13:12:43;;;;;;;;;;;10.50;99.90;;;;;;5099168;28;19924;-80
2023/04/01 13:15:16;;;;;;;;;;;10.50;99.90;;;;;;5082045;28;19928;-78
2023/04/01 13:17:57;;;;;;;;;;;10.50;99.90;;;;;;5099220;28;19931;-79
2023/04/01 13:20:34;;;;;;;;;;;10.50;99.90;;;;;;5082388;28;19991;-79
2023/04/01 13:23:00;;;;;;;;;;;10.50;99.90;;;;;;5082465;28;19936;-79
2023/04/01 13:25:41;;;;;;;;;;;10.50;99.90;;;;;;5098432;28;19924;-79
2023/04/01 13:28:12;;;;;;;;;;;10.60;99.90;;;;;;5085011;28;19924;-80
2023/04/01 13:30:48;;;;;;;;;;;10.50;99.90;;;;;;5082291;28;19939;-78
2023/04/01 13:33:27;;;;;;;;;;;10.50;99.90;;;;;;5099583;28;19935;-79
2023/04/01 13:36:17;;;;;;;;;;;10.40;99.90;;;;;;5081500;28;20006;-78
2023/04/01 13:39:02;;;;;;;;;;;10.40;99.90;;;;;;5081957;28;19924;-78
2023/04/01 13:41:40;;;;;;;;;;;10.40;99.90;;;;;;5098762;28;19935;-78
2023/04/01 13:44:11;;;;;;;;;;;10.40;99.90;;;;;;5082410;28;19931;-79
2023/04/01 13:47:15;;;;;;;;;;;10.40;99.90;;;;;;5080764;28;19924;-78
2023/04/01 13:50:00;;;;;;;;;;;10.40;99.90;;;;;;4996344;28;19956;-78
2023/04/01 13:52:26;;;;;;;;;;;10.40;99.90;;;;;;4999771;28;19925;-78
2023/04/01 13:55:24;;;;;;;;;;;10.40;99.90;;;;;;5038340;28;20407;-79
2023/04/01 13:58:04;;;;;;;;;;;10.40;99.90;;;;;;5032042;28;19970;-78
2023/04/01 14:00:49;;;;;;;;;;;10.30;99.90;;;;;;5076138;28;19973;-78
2023/04/01 14:03:21;;;;;;;;;;;10.30;99.90;;;;;;5077791;28;19959;-78
2023/04/01 14:05:46;;;;;;;;;;;10.20;99.90;;;;;;5079807;28;19925;-78
2023/04/01 14:08:27;;;;;;;;;;;10.30;99.90;;;;;;5095473;28;19928;-78
2023/04/01 14:11:12;;;;;;;;;;;10.10;99.90;;;;;;5079830;28;20350;-78
2023/04/01 14:13:43;;;;;;;;;;;10.00;99.90;;;;;;5078266;28;19936;-78
2023/04/01 14:16:21;;;;;;;;;;;10.00;99.90;;;;;;5079691;28;20423;-78
2023/04/01 14:19:01;;;;;;;;;;;10.00;99.90;;;;;;5094342;28;19931;-79
2023/04/01 14:21:37;;;;;;;;;;;9.90;99.90;;;;;;5095423;28;19924;-77
2023/04/01 14:24:09;;;;;;;;;;;9.80;99.90;;;;;;5078849;28;20023;-78
2023/04/01 14:26:40;;;;;;;;;;;9.80;99.90;;;;;;5080461;28;19966;-78
2023/04/01 14:29:18;;;;;;;;;;;9.70;99.90;;;;;;5080823;28;19924;-78
2023/04/01 14:31:50;;;;;;;;;;;9.70;99.90;;;;;;5077130;28;19964;-77
2023/04/01 14:34:15;;;;;;;;;;;9.70;99.90;;;;;;5073770;28;19924;-77
2023/04/01 14:36:47;;;;;;;;;;;9.60;99.90;;;;;;5079607;28;19931;-78
2023/04/01 14:39:29;;;;;;;;;;;9.60;99.90;;;;;;5080922;28;19924;-77
2023/04/01 14:42:14;;;;;;;;;;;9.60;99.90;;;;;;5065704;28;19931;-84
2023/04/01 14:45:09;;;;;;;;;;;9.60;99.90;;;;;;5074508;28;20286;-78
2023/04/01 14:47:50;;;;;;;;;;;9.60;99.90;;;;;;5003960;28;19926;-78
2023/04/01 14:50:17;;;;;;;;;;;9.70;99.90;;;;;;5093552;28;20443;-77
2023/04/01 14:52:56;;;;;;;;;;;9.70;99.90;;;;;;5079642;28;19924;-78
2023/04/01 14:55:28;;;;;;;;;;;9.80;99.90;;;;;;5079229;28;19924;-77
2023/04/01 14:58:07;;;;;;;;;;;9.80;99.90;;;;;;5096057;28;19931;-78